createdAt,value
2023-02-02T00:01:46.643Z,102471.72
2023-02-02T00:04:19.621Z,102473.56
2023-02-02T00:06:47.510Z,102471.00
2023-02-02T00:09:28.120Z,102461.44
2023-02-02T00:11:56.506Z,102466.88
2023-02-02T00:14:24.083Z,102470.53
2023-02-02T00:16:57.616Z,102463.59
2023-02-02T00:19:31.640Z,102466.38
2023-02-02T00:21:58.733Z,102464.06
2023-02-02T00:24:28.590Z,102455.25
2023-02-02T00:26:58.050Z,102451.03
2023-02-02T00:29:28.274Z,102451.16
2023-02-02T00:31:55.802Z,102449.41
2023-02-02T00:34:23.601Z,102448.78
2023-02-02T00:36:51.103Z,102448.88
2023-02-02T00:39:26.211Z,102445.41
2023-02-02T00:41:56.071Z,102440.94
2023-02-02T00:44:42.034Z,102446.25
2023-02-02T00:47:09.159Z,102434.88
2023-02-02T00:49:36.814Z,102436.75
2023-02-02T00:52:03.881Z,102432.28
2023-02-02T00:54:31.623Z,102429.69
2023-02-02T00:56:58.774Z,102427.03
2023-02-02T00:59:25.685Z,102435.94
2023-02-02T01:01:52.769Z,102419.13
2023-02-02T01:04:19.730Z,102425.31
2023-02-02T01:06:46.975Z,102432.38
2023-02-02T01:09:14.165Z,102430.63
2023-02-02T01:11:45.579Z,102426.19
2023-02-02T01:14:12.509Z,102419.22
2023-02-02T01:16:39.667Z,102421.00
2023-02-02T01:19:07.051Z,102426.38
2023-02-02T01:21:34.008Z,102417.53
2023-02-02T01:24:00.966Z,102420.25
2023-02-02T01:26:28.117Z,102430.00
2023-02-02T01:28:55.093Z,102434.41
2023-02-02T01:31:22.449Z,102426.53
2023-02-02T01:33:50.390Z,102430.00
2023-02-02T01:36:20.104Z,102421.22
2023-02-02T01:38:48.260Z,102423.06
2023-02-02T01:41:25.066Z,102423.88
2023-02-02T01:43:58.444Z,102420.41
2023-02-02T01:46:32.916Z,102417.81
2023-02-02T01:49:06.235Z,102409.09
2023-02-02T01:51:40.514Z,102416.22
2023-02-02T01:54:13.409Z,102408.31
2023-02-02T01:56:49.505Z,102397.75
2023-02-02T01:59:18.362Z,102401.44
2023-02-02T02:01:47.780Z,102403.25
2023-02-02T02:04:15.901Z,102395.41
2023-02-02T02:06:45.577Z,102403.44
2023-02-02T02:09:13.214Z,102410.53
2023-02-02T02:11:40.780Z,102399.19
2023-02-02T02:14:29.478Z,102399.19
2023-02-02T02:16:56.447Z,102396.56
2023-02-02T02:20:20.114Z,102394.09
2023-02-02T02:23:05.801Z,102380.00
2023-02-02T02:26:02.262Z,102390.63
2023-02-02T02:28:47.997Z,102384.44
2023-02-02T02:31:24.279Z,102376.53
2023-02-02T02:33:59.413Z,102385.47
2023-02-02T02:36:26.499Z,102368.69
2023-02-02T02:39:08.654Z,102368.63
2023-02-02T02:41:42.234Z,102374.78
2023-02-02T02:44:13.181Z,102378.38
2023-02-02T02:46:40.378Z,102373.00
2023-02-02T02:49:11.022Z,102380.09
2023-02-02T02:51:54.773Z,102373.94
2023-02-02T02:54:33.306Z,102375.66
2023-02-02T02:57:13.232Z,102368.47
2023-02-02T02:59:55.536Z,102378.28
2023-02-02T03:03:07.024Z,102368.69
2023-02-02T03:06:04.108Z,102370.47
2023-02-02T03:08:41.332Z,102366.03
2023-02-02T03:11:11.002Z,102365.28
2023-02-02T03:13:39.760Z,102370.59
2023-02-02T03:16:06.927Z,102377.59
2023-02-02T03:18:34.547Z,102382.03
2023-02-02T03:21:01.544Z,102378.47
2023-02-02T03:23:28.657Z,102387.41
2023-02-02T03:25:56.455Z,102383.06
2023-02-02T03:28:24.691Z,102395.38
2023-02-02T03:30:53.747Z,102389.31
2023-02-02T03:33:21.556Z,102398.19
2023-02-02T03:35:48.568Z,102396.56
2023-02-02T03:38:16.090Z,102400.13
2023-02-02T03:40:43.097Z,102386.03
2023-02-02T03:43:10.100Z,102381.78
2023-02-02T03:45:37.417Z,102388.06
2023-02-02T03:48:05.869Z,102383.06
2023-02-02T03:50:33.283Z,102393.88
2023-02-02T03:53:00.490Z,102397.66
2023-02-02T03:55:27.513Z,102388.84
2023-02-02T03:57:54.516Z,102391.53
2023-02-02T04:00:22.089Z,102392.50
2023-02-02T04:02:49.152Z,102386.38
2023-02-02T04:05:16.206Z,102390.94
2023-02-02T04:07:43.223Z,102395.38
2023-02-02T04:10:10.858Z,102388.44
2023-02-02T04:12:37.718Z,102392.09
2023-02-02T04:15:05.256Z,102387.78
2023-02-02T04:17:32.314Z,102393.09
2023-02-02T04:19:59.356Z,102387.81
2023-02-02T04:22:26.684Z,102394.06
2023-02-02T04:24:53.903Z,102392.41
2023-02-02T04:27:20.885Z,102393.25
2023-02-02T04:29:47.936Z,102399.38
2023-02-02T04:32:16.310Z,102396.81
2023-02-02T04:34:43.629Z,102409.16
2023-02-02T04:37:11.859Z,102410.13
2023-02-02T04:39:38.764Z,102404.03
2023-02-02T04:42:05.791Z,102407.72
2023-02-02T04:44:33.333Z,102397.09
2023-02-02T04:47:00.329Z,102403.31
2023-02-02T04:49:27.423Z,102399.94
2023-02-02T04:51:54.628Z,102408.72
2023-02-02T04:54:21.746Z,102405.22
2023-02-02T04:56:48.664Z,102407.88
2023-02-02T04:59:15.616Z,102403.69
2023-02-02T05:01:42.535Z,102405.47
2023-02-02T05:04:11.679Z,102395.81
2023-02-02T05:06:38.696Z,102399.34
2023-02-02T05:09:05.657Z,102404.69
2023-02-02T05:11:32.715Z,102403.75
2023-02-02T05:13:59.627Z,102409.06
2023-02-02T05:16:28.822Z,102405.53
2023-02-02T05:18:57.920Z,102407.25
2023-02-02T05:21:24.886Z,102412.59
2023-02-02T05:23:51.848Z,102410.78
2023-02-02T05:26:23.039Z,102416.81
2023-02-02T05:28:50.073Z,102420.41
2023-02-02T05:31:17.151Z,102430.94
2023-02-02T05:33:44.511Z,102430.81
2023-02-02T05:36:11.785Z,102437.88
2023-02-02T05:38:38.938Z,102429.03
2023-02-02T05:41:05.928Z,102433.44
2023-02-02T05:43:33.604Z,102441.44
2023-02-02T05:46:01.127Z,102438.75
2023-02-02T05:48:29.131Z,102444.91
2023-02-02T05:51:15.371Z,102437.94
2023-02-02T05:53:44.416Z,102434.59
2023-02-02T05:56:11.918Z,102438.16
2023-02-02T05:58:39.166Z,102452.19
2023-02-02T06:01:06.097Z,102440.88
2023-02-02T06:03:33.176Z,102447.28
2023-02-02T06:06:00.503Z,102447.25
2023-02-02T06:08:27.622Z,102451.78
2023-02-02T06:10:55.813Z,102458.91
2023-02-02T06:13:23.117Z,102461.78
2023-02-02T06:15:50.087Z,102463.59
2023-02-02T06:18:17.152Z,102472.38
2023-02-02T06:20:44.098Z,102471.53
2023-02-02T06:23:13.779Z,102480.34
2023-02-02T06:25:40.938Z,102479.47
2023-02-02T06:28:08.815Z,102484.78
2023-02-02T06:30:35.793Z,102491.88
2023-02-02T06:33:02.763Z,102491.72
2023-02-02T06:35:29.710Z,102488.19
2023-02-02T06:37:58.049Z,102495.28
2023-02-02T06:40:25.132Z,102500.59
2023-02-02T06:42:59.759Z,102513.91
2023-02-02T06:45:27.950Z,102513.94
2023-02-02T06:47:58.428Z,102513.31
2023-02-02T06:50:25.404Z,102513.31
2023-02-02T06:52:53.563Z,102507.16
2023-02-02T06:55:20.481Z,102513.41
2023-02-02T06:57:47.412Z,102500.19
2023-02-02T07:00:14.863Z,102499.44
2023-02-02T07:02:45.768Z,102497.69
2023-02-02T07:05:12.969Z,102503.06
2023-02-02T07:07:39.891Z,102503.81
2023-02-02T07:10:07.381Z,102505.19
2023-02-02T07:12:34.406Z,102501.25
2023-02-02T07:15:01.372Z,102502.78
2023-02-02T07:17:28.370Z,102497.19
2023-02-02T07:19:55.376Z,102503.88
2023-02-02T07:22:22.498Z,102492.72
2023-02-02T07:24:49.501Z,102502.72
2023-02-02T07:27:16.490Z,102509.19
2023-02-02T07:29:43.483Z,102507.34
2023-02-02T07:32:10.461Z,102516.19
2023-02-02T07:34:38.776Z,102523.53
2023-02-02T07:37:05.751Z,102515.91
2023-02-02T07:39:32.726Z,102527.25
2023-02-02T07:41:59.727Z,102531.41
2023-02-02T07:44:34.961Z,102522.78
2023-02-02T07:47:01.890Z,102522.69
2023-02-02T07:49:29.016Z,102518.19
2023-02-02T07:51:56.106Z,102514.66
2023-02-02T07:54:23.581Z,102520.22
2023-02-02T07:56:50.565Z,102527.50
2023-02-02T07:59:17.735Z,102517.06
2023-02-02T08:01:44.795Z,102515.19
2023-02-02T08:04:11.844Z,102521.59
2023-02-02T08:06:40.308Z,102523.91
2023-02-02T08:09:09.280Z,102534.72
2023-02-02T08:11:37.891Z,102535.66
2023-02-02T08:14:06.159Z,102543.56
2023-02-02T08:16:35.370Z,102544.47
2023-02-02T08:19:02.471Z,102542.69
2023-02-02T08:21:29.759Z,102549.63
2023-02-02T08:23:56.961Z,102563.56
2023-02-02T08:26:26.760Z,102556.38
2023-02-02T08:28:56.488Z,102550.88
2023-02-02T08:31:31.608Z,102562.38
2023-02-02T08:33:58.801Z,102558.91
2023-02-02T08:36:27.495Z,102559.97
2023-02-02T08:38:54.531Z,102563.84
2023-02-02T08:41:24.257Z,102556.63
2023-02-02T08:43:51.617Z,102551.63
2023-02-02T08:46:21.397Z,102549.47
2023-02-02T08:48:49.411Z,102548.75
2023-02-02T08:51:18.792Z,102564.09
2023-02-02T08:53:46.520Z,102557.13
2023-02-02T08:56:19.017Z,102564.78
2023-02-02T08:59:03.144Z,102567.88
2023-02-02T09:01:32.050Z,102572.66
2023-02-02T09:04:02.460Z,102564.28
2023-02-02T09:06:32.866Z,102570.16
2023-02-02T09:09:00.207Z,102561.25
2023-02-02T09:11:27.327Z,102565.31
2023-02-02T09:13:56.943Z,102562.22
2023-02-02T09:16:26.127Z,102567.69
2023-02-02T09:18:54.550Z,102573.41
2023-02-02T09:21:21.561Z,102570.31
2023-02-02T09:23:50.095Z,102569.94
2023-02-02T09:26:16.957Z,102570.88
2023-02-02T09:28:49.932Z,102573.50
2023-02-02T09:31:18.277Z,102571.28
2023-02-02T09:33:45.252Z,102567.78
2023-02-02T09:36:17.859Z,102572.88
2023-02-02T09:38:44.856Z,102569.84
2023-02-02T09:41:52.377Z,102572.25
2023-02-02T09:44:37.863Z,102569.72
2023-02-02T09:47:33.178Z,102573.72
2023-02-02T09:50:15.861Z,102570.47
2023-02-02T09:53:11.212Z,102582.06
2023-02-02T09:55:48.241Z,102589.66
2023-02-02T09:58:31.449Z,102586.41
2023-02-02T10:01:25.080Z,102581.56
2023-02-02T10:04:04.526Z,102580.91
2023-02-02T10:06:34.923Z,102580.09
2023-02-02T10:09:10.835Z,102577.72
2023-02-02T10:11:45.598Z,102583.47
2023-02-02T10:14:23.061Z,102588.31
2023-02-02T10:16:54.395Z,102587.84
2023-02-02T10:19:29.205Z,102594.44
2023-02-02T10:22:27.037Z,102598.09
2023-02-02T10:24:57.126Z,102604.91
2023-02-02T10:27:37.413Z,102601.47
2023-02-02T10:30:20.084Z,102594.44
2023-02-02T10:32:47.229Z,102600.06
2023-02-02T10:35:43.110Z,102600.41
2023-02-02T10:38:39.153Z,102594.78
2023-02-02T10:41:25.797Z,102592.53
2023-02-02T10:44:21.857Z,102588.91
2023-02-02T10:46:56.250Z,102576.84
2023-02-02T10:49:32.142Z,102585.28
2023-02-02T10:52:12.180Z,102574.13
2023-02-02T10:54:57.585Z,102578.34
2023-02-02T10:57:37.368Z,102586.84
2023-02-02T11:00:07.818Z,102578.88
2023-02-02T11:02:35.449Z,102570.28
2023-02-02T11:05:20.733Z,102576.41
2023-02-02T11:07:47.883Z,102567.69
2023-02-02T11:10:15.033Z,102573.63
2023-02-02T11:12:47.053Z,102554.53
2023-02-02T11:15:31.474Z,102557.34
2023-02-02T11:18:16.011Z,102563.31
2023-02-02T11:20:43.234Z,102554.28
2023-02-02T11:23:18.413Z,102546.91
2023-02-02T11:25:45.550Z,102540.72
2023-02-02T11:28:25.064Z,102529.06
2023-02-02T11:30:54.500Z,102537.28
2023-02-02T11:33:35.963Z,102526.91
2023-02-02T11:36:20.446Z,102520.16
2023-02-02T11:38:47.488Z,102511.28
2023-02-02T11:41:19.290Z,102508.91
2023-02-02T11:43:52.805Z,102501.59
2023-02-02T11:46:24.966Z,102498.31
2023-02-02T11:49:04.500Z,102488.25
2023-02-02T11:51:32.365Z,102490.50
2023-02-02T11:54:08.824Z,102492.00
2023-02-02T11:56:38.636Z,102480.00
2023-02-02T11:59:05.811Z,102475.25
2023-02-02T12:01:34.279Z,102469.34
2023-02-02T12:04:25.136Z,102457.97
2023-02-02T12:06:52.095Z,102461.75
2023-02-02T12:09:24.922Z,102460.88
2023-02-02T12:12:43.157Z,102460.59
2023-02-02T12:15:31.527Z,102451.94
2023-02-02T12:18:33.431Z,102449.25
2023-02-02T12:21:07.390Z,102441.13
2023-02-02T12:24:09.869Z,102438.25
2023-02-02T12:26:40.329Z,102429.63
2023-02-02T12:29:25.351Z,102427.53
2023-02-02T12:32:06.894Z,102423.75
2023-02-02T12:34:51.889Z,102414.31
2023-02-02T12:37:18.935Z,102412.63
2023-02-02T12:40:16.799Z,102415.63
2023-02-02T12:43:07.074Z,102398.28
2023-02-02T12:45:51.808Z,102403.69
2023-02-02T12:48:50.799Z,102399.22
2023-02-02T12:51:29.872Z,102401.75
2023-02-02T12:54:32.814Z,102393.09
2023-02-02T12:56:56.077Z,102382.06
2023-02-02T12:59:41.242Z,102386.22
2023-02-02T13:02:39.317Z,102375.97
2023-02-02T13:05:10.008Z,102366.31
2023-02-02T13:07:41.735Z,102366.47
2023-02-02T13:10:41.240Z,102369.44
2023-02-02T13:13:24.627Z,102364.38
2023-02-02T13:15:59.259Z,102350.94
2023-02-02T13:18:31.706Z,102362.41
2023-02-02T13:21:11.531Z,102359.03
2023-02-02T13:23:45.810Z,102375.47
2023-02-02T13:26:19.687Z,102368.16
2023-02-02T13:29:06.215Z,102381.56
2023-02-02T13:31:50.949Z,102361.41
2023-02-02T13:34:41.657Z,102357.84
2023-02-02T13:37:32.391Z,102358.59
2023-02-02T13:40:19.762Z,102365.06
2023-02-02T13:42:55.687Z,102356.22
2023-02-02T13:45:51.781Z,102363.81
2023-02-02T13:48:36.685Z,102362.34
2023-02-02T13:51:28.570Z,102361.75
2023-02-02T13:54:16.076Z,102367.25
2023-02-02T13:56:52.495Z,102362.66
2023-02-02T13:59:29.511Z,102355.47
2023-02-02T14:01:59.058Z,102363.91
2023-02-02T14:04:30.576Z,102363.75
2023-02-02T14:09:38.547Z,102358.38
2023-02-02T14:12:10.494Z,102363.78
2023-02-02T14:14:40.071Z,102369.06
2023-02-02T14:17:13.206Z,102366.66
2023-02-02T14:19:42.182Z,102363.97
2023-02-02T14:22:09.282Z,102375.44
2023-02-02T14:24:36.161Z,102368.28
2023-02-02T14:27:25.705Z,102372.94
2023-02-02T14:29:52.989Z,102369.50
2023-02-02T14:32:28.834Z,102380.59
2023-02-02T14:35:14.490Z,102374.53
2023-02-02T14:37:47.294Z,102387.38
2023-02-02T14:40:39.432Z,102378.97
2023-02-02T14:43:46.267Z,102388.19
2023-02-02T14:46:13.300Z,102378.59
2023-02-02T14:48:43.127Z,102373.69
2023-02-02T14:51:28.499Z,102373.63
2023-02-02T14:54:01.243Z,102375.78
2023-02-02T14:56:59.543Z,102376.28
2023-02-02T14:59:36.496Z,102371.94
2023-02-02T15:02:17.775Z,102390.34
2023-02-02T15:04:47.975Z,102389.63
2023-02-02T15:07:51.525Z,102388.25
2023-02-02T15:10:53.491Z,102392.09
2023-02-02T15:13:37.880Z,102388.00
2023-02-02T15:16:20.821Z,102384.75
2023-02-02T15:18:57.719Z,102386.91
2023-02-02T15:21:24.915Z,102390.19
2023-02-02T15:23:52.049Z,102395.94
2023-02-02T15:26:25.049Z,102389.91
2023-02-02T15:28:58.697Z,102392.94
2023-02-02T15:31:29.540Z,102394.84
2023-02-02T15:34:04.934Z,102390.66
2023-02-02T15:36:39.289Z,102385.09
2023-02-02T15:39:51.559Z,102400.47
2023-02-02T15:42:48.010Z,102396.34
2023-02-02T15:45:45.254Z,102400.47
2023-02-02T15:48:25.539Z,102404.09
2023-02-02T15:50:57.055Z,102399.13
2023-02-02T15:53:35.295Z,102389.06
2023-02-02T15:56:24.455Z,102392.38
2023-02-02T15:58:54.678Z,102392.03
2023-02-02T16:01:27.018Z,102388.19
2023-02-02T16:04:16.031Z,102386.09
2023-02-02T16:06:51.953Z,102391.91
2023-02-02T16:09:33.670Z,102385.13
2023-02-02T16:12:02.377Z,102389.34
2023-02-02T16:14:30.610Z,102388.41
2023-02-02T16:17:11.219Z,102387.03
2023-02-02T16:19:43.259Z,102377.66
2023-02-02T16:22:22.068Z,102388.41
2023-02-02T16:24:54.090Z,102388.94
2023-02-02T16:27:24.567Z,102386.09
2023-02-02T16:29:51.671Z,102385.22
2023-02-02T16:32:39.357Z,102381.44
2023-02-02T16:35:27.710Z,102389.94
2023-02-02T16:38:31.876Z,102386.81
2023-02-02T16:41:07.508Z,102399.81
2023-02-02T16:43:36.865Z,102406.91
2023-02-02T16:46:16.561Z,102412.88
2023-02-02T16:48:57.313Z,102413.63
2023-02-02T16:51:29.347Z,102421.53
2023-02-02T16:54:01.052Z,102428.84
2023-02-02T16:56:41.429Z,102436.56
2023-02-02T16:59:25.489Z,102429.84
2023-02-02T17:01:56.406Z,102433.63
2023-02-02T17:04:30.960Z,102427.59
2023-02-02T17:07:07.079Z,102429.66
2023-02-02T17:09:37.567Z,102441.91
2023-02-02T17:12:32.014Z,102445.53
2023-02-02T17:15:06.179Z,102449.88
2023-02-02T17:17:33.194Z,102454.50
2023-02-02T17:20:00.142Z,102453.13
2023-02-02T17:22:28.085Z,102470.81
2023-02-02T17:24:55.032Z,102475.38
2023-02-02T17:27:34.223Z,102471.81
2023-02-02T17:30:02.333Z,102464.97
2023-02-02T17:32:29.516Z,102475.38
2023-02-02T17:34:59.314Z,102476.94
2023-02-02T17:37:26.252Z,102473.00
2023-02-02T17:39:53.610Z,102474.19
2023-02-02T17:42:25.413Z,102483.38
2023-02-02T17:44:52.467Z,102477.97
2023-02-02T17:47:19.923Z,102467.97
2023-02-02T17:49:46.870Z,102474.00
2023-02-02T17:52:14.008Z,102484.19
2023-02-02T17:54:41.037Z,102485.38
2023-02-02T17:57:07.996Z,102483.63
2023-02-02T17:59:35.027Z,102488.50
2023-02-02T18:02:02.238Z,102490.06
2023-02-02T18:04:29.559Z,102486.88
2023-02-02T18:06:56.461Z,102491.25
2023-02-02T18:09:23.381Z,102491.88
2023-02-02T18:11:50.318Z,102488.06
2023-02-02T18:14:17.309Z,102488.00
2023-02-02T18:16:44.165Z,102489.81
2023-02-02T18:19:11.171Z,102498.88
2023-02-02T18:21:38.087Z,102491.25
2023-02-02T18:24:05.163Z,102487.63
2023-02-02T18:26:35.094Z,102484.19
2023-02-02T18:29:02.090Z,102492.84
2023-02-02T18:31:29.155Z,102496.59
2023-02-02T18:33:56.237Z,102506.53
2023-02-02T18:36:23.820Z,102508.41
2023-02-02T18:38:51.481Z,102514.63
2023-02-02T18:41:21.657Z,102510.63
2023-02-02T18:43:48.756Z,102511.88
2023-02-02T18:46:16.802Z,102514.59
2023-02-02T18:48:44.046Z,102519.75
2023-02-02T18:51:16.152Z,102516.72
2023-02-02T18:53:44.052Z,102527.19
2023-02-02T18:56:13.007Z,102515.44
2023-02-02T18:58:40.625Z,102520.53
2023-02-02T19:01:12.968Z,102533.22
2023-02-02T19:03:40.995Z,102539.63
2023-02-02T19:06:27.816Z,102538.66
2023-02-02T19:08:55.379Z,102539.69
2023-02-02T19:11:26.709Z,102531.03
2023-02-02T19:13:54.029Z,102533.00
2023-02-02T19:16:29.850Z,102544.63
2023-02-02T19:19:00.782Z,102535.75
2023-02-02T19:21:30.572Z,102541.03
2023-02-02T19:23:57.534Z,102540.84
2023-02-02T19:26:26.404Z,102538.00
2023-02-02T19:28:56.258Z,102542.72
2023-02-02T19:31:23.324Z,102542.19
2023-02-02T19:33:52.216Z,102549.03
2023-02-02T19:36:27.905Z,102551.22
2023-02-02T19:39:33.677Z,102549.94
2023-02-02T19:42:02.055Z,102557.47
2023-02-02T19:44:34.160Z,102555.72
2023-02-02T19:47:02.881Z,102553.34
2023-02-02T19:49:34.937Z,102561.53
2023-02-02T19:52:04.147Z,102563.25
2023-02-02T19:54:40.528Z,102558.19
2023-02-02T19:57:13.412Z,102564.88
2023-02-02T19:59:42.296Z,102566.88
2023-02-02T20:02:36.965Z,102575.78
2023-02-02T20:05:17.419Z,102564.44
2023-02-02T20:07:44.417Z,102559.22
2023-02-02T20:10:24.963Z,102571.81
2023-02-02T20:12:53.404Z,102582.63
2023-02-02T20:15:22.355Z,102585.50
2023-02-02T20:17:49.407Z,102582.28
2023-02-02T20:20:29.164Z,102581.34
2023-02-02T20:22:57.815Z,102583.47
2023-02-02T20:25:25.148Z,102580.03
2023-02-02T20:27:53.844Z,102574.69
2023-02-02T20:30:30.966Z,102581.88
2023-02-02T20:33:01.802Z,102593.00
2023-02-02T20:35:37.219Z,102591.31
2023-02-02T20:38:22.037Z,102584.13
2023-02-02T20:40:49.071Z,102594.19
2023-02-02T20:43:16.081Z,102602.50
2023-02-02T20:45:43.455Z,102610.72
2023-02-02T20:48:12.418Z,102605.44
2023-02-02T20:50:40.331Z,102605.84
2023-02-02T20:53:11.111Z,102597.97
2023-02-02T20:55:38.304Z,102608.78
2023-02-02T20:58:05.491Z,102616.94
2023-02-02T21:00:33.415Z,102615.41
2023-02-02T21:03:00.279Z,102607.44
2023-02-02T21:05:27.219Z,102614.66
2023-02-02T21:07:57.164Z,102614.91
2023-02-02T21:10:25.970Z,102618.53
2023-02-02T21:12:53.188Z,102623.13
2023-02-02T21:15:20.199Z,102624.09
2023-02-02T21:17:47.135Z,102618.84
2023-02-02T21:20:15.002Z,102615.41
2023-02-02T21:22:42.165Z,102620.72
2023-02-02T21:25:09.915Z,102625.44
2023-02-02T21:27:37.708Z,102631.00
2023-02-02T21:30:05.482Z,102635.53
2023-02-02T21:32:33.713Z,102621.41
2023-02-02T21:35:01.574Z,102622.44
2023-02-02T21:37:28.586Z,102625.28
2023-02-02T21:39:59.686Z,102631.63
2023-02-02T21:42:27.828Z,102639.78
2023-02-02T21:44:58.153Z,102637.22
2023-02-02T21:47:30.053Z,102633.75
2023-02-02T21:50:02.836Z,102622.41
2023-02-02T21:52:33.996Z,102622.66
2023-02-02T21:55:27.220Z,102632.38
2023-02-02T21:57:58.926Z,102633.44
2023-02-02T22:00:31.063Z,102637.03
2023-02-02T22:02:59.108Z,102627.25
2023-02-02T22:05:36.859Z,102633.44
2023-02-02T22:08:20.823Z,102629.97
2023-02-02T22:10:48.005Z,102638.97
2023-02-02T22:13:23.843Z,102632.75
2023-02-02T22:15:52.712Z,102628.47
2023-02-02T22:18:23.075Z,102635.53
2023-02-02T22:20:51.836Z,102632.06
2023-02-02T22:23:21.208Z,102633.91
2023-02-02T22:25:50.408Z,102641.97
2023-02-02T22:28:36.758Z,102652.72
2023-02-02T22:31:05.084Z,102655.47
2023-02-02T22:33:32.100Z,102642.09
2023-02-02T22:35:59.372Z,102637.78
2023-02-02T22:38:26.271Z,102641.41
2023-02-02T22:40:53.635Z,102641.59
2023-02-02T22:43:21.730Z,102654.09
2023-02-02T22:45:49.210Z,102651.56
2023-02-02T22:48:16.547Z,102654.22
2023-02-02T22:50:43.720Z,102638.47
2023-02-02T22:53:10.971Z,102643.91
2023-02-02T22:55:38.348Z,102645.75
2023-02-02T22:58:05.495Z,102633.50
2023-02-02T23:00:33.435Z,102630.03
2023-02-02T23:03:01.091Z,102624.94
2023-02-02T23:05:28.470Z,102633.84
2023-02-02T23:07:56.411Z,102630.41
2023-02-02T23:10:27.862Z,102627.03
2023-02-02T23:12:59.165Z,102628.13
2023-02-02T23:15:26.369Z,102623.75
2023-02-02T23:17:53.645Z,102627.38
2023-02-02T23:20:20.911Z,102623.91
2023-02-02T23:22:47.814Z,102629.25
2023-02-02T23:25:16.073Z,102632.78
2023-02-02T23:27:43.107Z,102632.78
2023-02-02T23:30:12.960Z,102632.97
2023-02-02T23:32:40.356Z,102626.84
2023-02-02T23:35:10.587Z,102628.66
2023-02-02T23:37:38.378Z,102637.59
2023-02-02T23:40:06.753Z,102645.53
2023-02-02T23:42:34.143Z,102643.78
2023-02-02T23:45:01.126Z,102636.84
2023-02-02T23:47:28.195Z,102629.91
2023-02-02T23:49:55.544Z,102635.31
2023-02-02T23:52:22.640Z,102644.25
2023-02-02T23:54:49.546Z,102638.16
2023-02-02T23:57:16.710Z,102640.75
2023-02-02T23:59:43.800Z,102640.75
